Time;durP1;ratioP1;P1;durP2;ratioP2;P2;SDS_P1;SDS_P2;PMS_P1;PMS_P2;Temp;Humidity;BMP_temperature;BMP_pressure;BME280_temperature;BME280_humidity;BME280_pressure;Samples;Min_cycle;Max_cycle;Signal;HPM_P1;HPM_P2
2022/10/03 00:00:25;;;;;;;2.13;1.90;;;10.80;99.90;;;10.15;100.00;98032.78;5039969;28;20055;-53
2022/10/03 00:03:28;;;;;;;3.17;2.10;;;10.80;99.90;;;10.16;100.00;98040.66;5035927;28;20266;-54
2022/10/03 00:06:09;;;;;;;;;;;10.70;99.90;;;10.15;100.00;98049.44;5038668;28;20047;-53
2022/10/03 00:08:44;;;;;;;5.07;2.78;;;10.70;99.90;;;10.13;100.00;98051.25;5034001;28;20097;-53
2022/10/03 00:11:41;;;;;;;3.97;2.88;;;10.70;99.90;;;10.16;100.00;98050.31;5040744;28;20143;-55
2022/10/03 00:14:23;;;;;;;4.63;3.70;;;10.70;99.90;;;10.15;100.00;98054.72;5044093;28;20121;-53
2022/10/03 00:17:15;;;;;;;6.05;4.50;;;10.70;99.90;;;10.21;100.00;98069.53;5041635;28;20036;-54
2022/10/03 00:20:10;;;;;;;7.10;4.18;;;10.80;99.90;;;10.23;100.00;98065.06;5041936;28;20039;-54
2022/10/03 00:23:02;;;;;;;6.40;4.82;;;10.80;99.90;;;10.25;100.00;98065.94;5036172;28;20039;-55
2022/10/03 00:25:42;;;;;;;5.95;5.35;;;10.80;99.90;;;10.28;100.00;98072.00;5037890;28;20047;-53
2022/10/03 00:28:20;;;;;;;4.65;3.78;;;10.80;99.90;;;10.32;100.00;98078.94;5040437;28;20043;-53
2022/10/03 00:31:15;;;;;;;13.05;6.13;;;10.90;99.90;;;10.34;100.00;98072.75;5039056;28;20098;-55
2022/10/03 00:34:11;;;;;;;7.35;4.88;;;10.90;99.90;;;10.34;100.00;98070.09;5054655;28;20121;-55
2022/10/03 00:37:20;;;;;;;5.72;4.63;;;10.90;99.90;;;10.38;100.00;98079.69;5053783;28;20501;-54
2022/10/03 00:40:04;;;;;;;5.28;4.72;;;10.90;99.90;;;10.37;100.00;98076.16;5034069;28;20029;-54
2022/10/03 00:43:15;;;;;;;7.63;6.35;;;10.90;99.90;;;10.36;100.00;98076.22;5040466;28;20051;-53
2022/10/03 00:46:14;;;;;;;15.45;6.38;;;10.90;99.90;;;10.31;100.00;98085.09;5034084;28;20024;-54
2022/10/03 00:50:01;;;;;;;8.52;5.45;;;10.90;99.90;;;10.31;100.00;98084.25;5035854;28;20030;-54
2022/10/03 00:53:10;;;;;;;7.93;5.43;;;10.90;99.90;;;10.31;100.00;98090.38;5021740;28;20071;-54
2022/10/03 00:55:53;;;;;;;9.02;6.28;;;10.90;99.90;;;10.34;100.00;98088.56;5036973;28;20048;-53
2022/10/03 00:58:56;;;;;;;7.57;5.45;;;10.90;99.90;;;10.34;100.00;98092.09;5044245;28;20098;-53
2022/10/03 01:01:35;;;;;;;6.60;5.05;;;10.90;99.90;;;10.35;100.00;98087.66;5042486;28;20074;-54
2022/10/03 01:04:53;;;;;;;6.30;5.65;;;10.90;99.90;;;10.32;100.00;98088.63;5052409;28;20040;-53
2022/10/03 01:07:29;;;;;;;6.35;5.55;;;10.90;99.90;;;10.29;100.00;98086.88;5052177;28;20462;-52
2022/10/03 01:10:40;;;;;;;6.07;5.32;;;10.80;99.90;;;10.26;100.00;98089.59;5035984;28;20039;-54
2022/10/03 01:13:36;;;;;;;7.07;6.22;;;10.80;99.90;;;10.23;100.00;98096.69;5049310;28;20247;-53
2022/10/03 01:16:21;;;;;;;6.50;5.32;;;10.80;99.90;;;10.22;100.00;98087.94;5031519;28;20048;-54
2022/10/03 01:19:20;;;;;;;5.63;4.38;;;10.80;99.90;;;10.20;100.00;98075.72;5041844;28;20116;-54
2022/10/03 01:22:29;;;;;;;4.72;4.22;;;10.70;99.90;;;10.21;100.00;98082.69;5043961;28;20032;-54
2022/10/03 01:25:12;;;;;;;6.70;4.68;;;10.80;99.90;;;10.19;100.00;98076.59;5058033;28;20097;-54
2022/10/03 01:31:02;;;;;;;5.53;4.15;;;10.70;99.90;;;10.08;100.00;98090.91;5032558;28;20630;-52
2022/10/03 01:33:38;;;;;;;12.32;5.57;;;10.60;99.90;;;10.04;100.00;98088.38;5041304;28;20475;-54
2022/10/03 01:36:39;;;;;;;6.13;5.53;;;10.60;99.90;;;9.94;100.00;98093.00;5032710;28;20128;-53
2022/10/03 01:39:34;;;;;;;6.07;4.75;;;10.50;99.90;;;9.84;100.00;98091.50;5034374;28;20051;-54
2022/10/03 01:42:36;;;;;;;6.38;4.78;;;10.40;99.90;;;9.75;100.00;98089.94;5028548;28;20433;-54
2022/10/03 01:45:14;;;;;;;6.55;5.85;;;10.30;99.90;;;9.74;100.00;98098.72;5054870;28;20138;-55
2022/10/03 01:50:37;;;;;;;7.03;6.32;;;10.40;99.90;;;9.91;100.00;98109.75;5059526;28;20375;-43
2022/10/03 01:53:21;;;;;;;;;;;10.40;99.90;;;10.00;100.00;98107.81;5058151;28;20035;-44
2022/10/03 01:56:18;;;;;;;10.82;7.13;;;10.50;99.90;;;10.02;100.00;98114.78;5059726;28;20281;-43
2022/10/03 01:58:57;;;;;;;8.60;7.22;;;10.60;99.90;;;10.07;100.00;98122.59;5036596;28;20477;-45
2022/10/03 02:01:50;;;;;;;7.18;5.78;;;10.60;99.90;;;10.11;100.00;98130.38;5040756;28;20041;-44
2022/10/03 02:04:44;;;;;;;13.63;6.57;;;10.60;99.90;;;10.13;100.00;98123.28;5044239;28;20039;-44
2022/10/03 02:07:57;;;;;;;16.20;7.13;;;10.70;99.90;;;10.16;100.00;98132.03;5043631;28;20033;-45
2022/10/03 02:10:31;;;;;;;16.13;6.43;;;10.70;99.90;;;10.15;100.00;98123.25;5044056;28;20455;-45
2022/10/03 02:13:16;;;;;;;8.38;6.40;;;10.70;99.90;;;10.19;100.00;98134.59;5039492;28;20473;-44
2022/10/03 02:16:09;;;;;;;29.70;9.48;;;10.70;99.90;;;10.21;100.00;98133.66;5028647;28;20040;-46
2022/10/03 02:19:02;;;;;;;11.75;8.60;;;10.80;99.90;;;10.26;100.00;98136.19;5041620;28;20025;-44
2022/10/03 02:21:31;;;;;;;17.42;12.38;;;10.80;99.90;;;10.24;100.00;98130.09;5025005;28;20044;-44
2022/10/03 02:24:15;;;;;;;20.38;13.27;;;10.80;99.90;;;10.26;100.00;98141.44;5027803;28;20032;-45
2022/10/03 02:27:36;;;;;;;11.38;9.75;;;10.80;99.90;;;10.28;100.00;98137.91;5043190;28;20089;-44
2022/10/03 02:30:19;;;;;;;13.05;9.95;;;10.80;99.90;;;10.31;100.00;98136.97;5039775;28;20651;-43
2022/10/03 02:32:57;;;;;;;;;;;10.90;99.90;;;10.31;100.00;98134.34;5021064;28;21175;-43
2022/10/03 02:36:17;;;;;;;11.05;9.05;;;10.90;99.90;;;10.34;100.00;98138.66;5026240;28;19967;-44
2022/10/03 02:38:55;;;;;;;11.00;9.30;;;10.90;99.90;;;10.33;100.00;98140.44;5033295;28;20032;-43
2022/10/03 02:41:59;;;;;;;14.85;10.60;;;10.90;99.90;;;10.30;100.00;98136.09;5040494;28;20147;-46
2022/10/03 02:45:10;;;;;;;18.38;11.02;;;10.90;99.90;;;10.28;100.00;98135.25;5025441;28;20035;-45
2022/10/03 02:47:59;;;;;;;10.27;9.15;;;10.80;99.90;;;10.21;100.00;98138.06;5022138;28;20036;-44
2022/10/03 02:51:25;;;;;;;12.75;10.02;;;10.80;99.90;;;10.13;100.00;98132.97;5037273;28;20054;-45
2022/10/03 02:54:24;;;;;;;12.73;9.35;;;10.70;99.90;;;10.06;100.00;98134.88;5040768;28;20054;-43
2022/10/03 02:57:46;;;;;;;12.82;9.35;;;10.70;99.90;;;10.04;100.00;98135.81;5013048;28;20031;-42
2022/10/03 03:00:15;;;;;;;9.68;8.45;;;10.60;99.90;;;10.00;100.00;98127.13;5041116;28;20431;-44
2022/10/03 03:03:08;;;;;;;13.13;8.27;;;10.50;99.90;;;10.03;100.00;98128.81;5045337;28;20086;-47
2022/10/03 03:06:15;;;;;;;;;;;10.50;99.90;;;10.04;100.00;98127.94;5037737;28;20033;-42
2022/10/03 03:09:16;;;;;;;9.65;7.45;;;10.50;99.90;;;10.01;100.00;98134.13;5021579;28;19981;-43
2022/10/03 03:12:12;;;;;;;9.57;6.90;;;10.50;99.90;;;9.91;100.00;98122.06;5044540;28;22506;-44
2022/10/03 03:15:12;;;;;;;8.98;6.53;;;10.40;99.90;;;9.85;100.00;98130.97;5046168;28;20027;-45
2022/10/03 03:17:52;;;;;;;8.50;7.18;;;10.40;99.90;;;9.80;100.00;98137.22;5024975;28;20065;-43
2022/10/03 03:20:53;;;;;;;8.57;6.50;;;10.30;99.90;;;9.74;100.00;98132.97;5027161;28;20590;-44
2022/10/03 03:24:15;;;;;;;9.35;6.53;;;10.30;99.90;;;9.71;100.00;98123.38;5044540;28;20126;-45
2022/10/03 03:26:51;;;;;;;10.43;7.80;;;10.20;99.90;;;9.76;100.00;98128.53;5044523;28;20040;-46
2022/10/03 03:29:54;;;;;;;10.82;7.97;;;10.30;99.90;;;9.81;100.00;98124.03;5039804;28;20217;-45
2022/10/03 03:32:35;;;;;;;;;;;10.30;99.90;;;9.85;100.00;98117.81;5014912;28;20070;-44
2022/10/03 03:35:32;;;;;;;10.68;7.68;;;10.40;99.90;;;9.93;100.00;98125.53;5039323;28;19923;-45
2022/10/03 03:38:29;;;;;;;10.55;7.95;;;10.40;99.90;;;9.99;100.00;98116.63;5018735;28;20032;-43
2022/10/03 03:41:24;;;;;;;10.70;8.38;;;10.50;99.90;;;10.03;100.00;98128.81;5024420;28;20040;-45
2022/10/03 03:44:19;;;;;;;8.75;6.93;;;10.60;99.90;;;10.08;100.00;98127.78;5026414;28;20694;-43
2022/10/03 03:46:52;;;;;;;11.15;7.63;;;10.60;99.90;;;10.13;100.00;98125.94;5017210;28;20042;-44
2022/10/03 03:50:25;;;;;;;10.85;8.77;;;10.70;99.90;;;10.13;100.00;98118.03;5038607;28;20553;-47
2022/10/03 03:53:36;;;;;;;14.98;7.80;;;10.70;99.90;;;10.20;100.00;98125.81;4995570;28;20239;-45
2022/10/03 03:56:22;;;;;;;11.32;8.05;;;10.70;99.90;;;10.22;100.00;98124.84;5038768;28;20051;-45
2022/10/03 03:59:17;;;;;;;8.52;7.30;;;10.70;99.90;;;10.22;100.00;98127.47;5032797;28;20257;-43
2022/10/03 04:02:03;;;;;;;7.47;6.68;;;10.80;99.90;;;10.22;100.00;98127.47;5035958;28;20464;-45
2022/10/03 04:05:11;;;;;;;8.35;7.25;;;10.70;99.90;;;10.23;100.00;98133.59;5027675;28;20032;-47
2022/10/03 04:08:09;;;;;;;9.85;7.60;;;10.70;99.90;;;10.23;100.00;98137.13;5022578;28;20067;-47
2022/10/03 04:11:12;;;;;;;11.23;8.00;;;10.80;99.90;;;10.19;100.00;98135.44;5027191;28;20133;-44
2022/10/03 04:13:46;;;;;;;8.05;6.68;;;10.70;99.90;;;10.17;100.00;98141.69;5033106;28;20469;-43
2022/10/03 04:20:03;;;;;;;5.88;5.13;;;10.70;99.90;;;10.07;100.00;98141.91;5033728;28;20709;-45
2022/10/03 04:22:52;;;;;;;7.05;5.80;;;10.60;99.90;;;10.06;100.00;98139.28;5006765;28;20040;-45
2022/10/03 04:25:48;;;;;;;9.65;6.13;;;10.60;99.90;;;10.04;100.00;98136.69;5036027;28;20067;-46
2022/10/03 04:28:33;;;;;;;6.80;5.85;;;10.60;99.90;;;10.02;100.00;98137.63;5023170;28;20171;-44
2022/10/03 04:31:32;;;;;;;7.25;5.70;;;10.60;99.90;;;10.03;100.00;98137.59;5036008;28;20496;-45
2022/10/03 04:34:18;;;;;;;8.65;6.35;;;10.60;99.90;;;10.04;100.00;98141.97;5037684;28;20081;-46
2022/10/03 04:37:08;;;;;;;6.07;5.40;;;10.60;99.90;;;10.04;100.00;98146.38;5042644;28;20044;-47
2022/10/03 04:39:56;;;;;;;7.65;5.30;;;10.60;99.90;;;10.04;100.00;98154.28;5042324;28;20034;-43
2022/10/03 04:43:01;;;;;;;7.97;5.30;;;10.60;99.90;;;10.04;100.00;98156.91;5025801;28;20044;-46
2022/10/03 04:45:48;;;;;;;8.30;6.20;;;10.60;99.90;;;10.01;100.00;98152.56;5023117;28;20045;-48
2022/10/03 04:48:37;;;;;;;6.53;5.10;;;10.50;99.90;;;9.98;100.00;98160.56;5038759;28;20064;-44
2022/10/03 04:51:37;;;;;;;7.30;6.30;;;10.50;99.90;;;9.98;100.00;98162.31;5039175;28;20093;-46
2022/10/03 04:54:34;;;;;;;6.50;5.32;;;10.50;99.90;;;9.99;100.00;98156.16;5045211;28;20035;-46
2022/10/03 04:57:09;;;;;;;6.38;4.85;;;10.50;99.90;;;9.96;100.00;98156.22;5041118;28;20517;-45
2022/10/03 05:00:13;;;;;;;8.98;6.55;;;10.50;99.90;;;9.97;100.00;98156.16;5042802;28;20318;-47
2022/10/03 05:02:46;;;;;;;9.13;6.72;;;10.50;99.90;;;9.96;100.00;98159.72;5041524;28;20510;-47
2022/10/03 05:05:34;;;;;;;9.77;7.07;;;10.50;99.90;;;9.97;100.00;98161.44;5020868;28;20669;-47
2022/10/03 05:08:36;;;;;;;10.57;6.70;;;10.50;99.90;;;9.98;100.00;98165.81;5043827;28;20028;-47
2022/10/03 05:11:23;;;;;;;10.13;7.93;;;10.50;99.90;;;9.98;100.00;98173.72;5037698;28;20063;-46
2022/10/03 05:14:21;;;;;;;16.50;8.63;;;10.50;99.90;;;9.99;100.00;98167.53;5037736;28;20034;-45
2022/10/03 05:16:52;;;;;;;10.32;8.05;;;10.50;99.90;;;9.99;100.00;98170.19;5045788;28;20051;-46
2022/10/03 05:19:59;;;;;;;9.15;7.15;;;10.50;99.90;;;10.00;100.00;98169.28;5046570;28;20037;-46
2022/10/03 05:22:53;;;;;;;10.40;8.18;;;10.50;99.90;;;10.01;100.00;98168.38;5041479;28;20755;-44
2022/10/03 05:25:30;;;;;;;11.45;8.90;;;10.60;99.90;;;10.02;100.00;98172.75;5047875;28;20475;-45
2022/10/03 05:28:27;;;;;;;11.15;8.32;;;10.60;99.90;;;10.05;100.00;98169.16;5046487;28;20108;-44
2022/10/03 05:31:34;;;;;;;11.88;8.25;;;10.60;99.90;;;10.05;100.00;98175.34;5046779;28;20036;-43
2022/10/03 05:34:43;;;;;;;15.90;8.68;;;10.60;99.90;;;10.07;100.00;98180.56;5029921;28;20138;-43
2022/10/03 05:37:33;;;;;;;12.60;7.63;;;10.60;99.90;;;10.07;100.00;98184.06;5042892;28;20028;-43
2022/10/03 05:40:25;;;;;;;13.73;7.47;;;10.60;99.90;;;10.07;100.00;98180.56;5037721;28;20051;-46
2022/10/03 05:42:54;;;;;;;18.17;10.00;;;10.60;99.90;;;10.05;100.00;98185.88;5026345;28;20293;-43
2022/10/03 05:45:47;;;;;;;11.95;8.00;;;10.60;99.90;;;10.05;100.00;98201.69;5033910;28;20057;-46
2022/10/03 05:48:54;;;;;;;19.23;10.60;;;10.60;99.90;;;10.04;100.00;98205.22;5041519;28;20040;-43
2022/10/03 05:51:47;;;;;;;16.35;9.88;;;10.60;99.90;;;10.04;100.00;98205.22;5026572;28;20042;-44
2022/10/03 05:54:40;;;;;;;;;;;10.60;99.90;;;10.04;100.00;98217.53;5037180;28;20325;-43
2022/10/03 05:57:32;;;;;;;;;;;10.60;99.90;;;10.04;100.00;98220.16;5044391;28;19912;-45
2022/10/03 06:00:22;;;;;;;21.75;12.45;;;10.60;99.90;;;10.04;100.00;98223.66;5040684;28;19927;-44
2022/10/03 06:03:50;;;;;;;17.25;11.15;;;10.60;99.90;;;9.93;100.00;98201.94;5024241;28;20257;-44
2022/10/03 06:06:47;;;;;;;14.73;10.68;;;10.60;99.90;;;10.10;100.00;98226.19;5039882;28;20033;-44
2022/10/03 06:09:37;;;;;;;16.63;10.48;;;10.70;99.90;;;10.12;100.00;98224.38;5021985;28;20067;-45
2022/10/03 06:12:53;;;;;;;25.05;15.63;;;10.70;99.90;;;10.12;100.00;98224.38;5026703;28;20040;-47
2022/10/03 06:15:55;;;;;;;22.92;14.27;;;10.70;99.90;;;10.12;100.00;98227.00;5044428;28;20610;-47
2022/10/03 06:19:06;;;;;;;20.05;13.75;;;10.70;99.90;;;10.16;100.00;98229.56;5040031;28;20028;-47
2022/10/03 06:21:55;;;;;;;21.00;13.73;;;10.70;99.90;;;10.21;100.00;98225.94;5021872;28;20031;-43
2022/10/03 06:25:15;;;;;;;21.00;13.75;;;10.70;99.90;;;10.28;100.00;98229.28;5028457;28;20157;-47
2022/10/03 06:28:11;;;;;;;17.08;11.52;;;10.80;99.90;;;10.40;100.00;98230.81;5024860;28;20032;-44
2022/10/03 06:31:29;;;;;;;21.83;13.95;;;10.90;99.90;;;10.49;100.00;98234.09;5036108;28;20573;-47
2022/10/03 06:34:19;;;;;;;23.00;14.98;;;11.00;99.90;;;10.61;100.00;98240.00;4994232;28;20051;-46
2022/10/03 06:37:19;;;;;;;24.50;15.20;;;11.10;99.90;;;10.75;100.00;98237.91;5043056;28;20048;-44
2022/10/03 06:39:55;;;;;;;18.17;13.75;;;11.20;99.90;;;10.91;100.00;98240.16;5037415;28;20556;-45
2022/10/03 06:42:45;;;;;;;21.88;14.00;;;11.40;99.90;;;10.95;100.00;98237.41;5027360;28;20052;-45
2022/10/03 06:45:58;;;;;;;20.52;13.65;;;11.40;99.90;;;10.92;100.00;98247.19;5041811;28;20266;-45
2022/10/03 06:49:00;;;;;;;17.48;12.57;;;11.50;99.90;;;10.98;100.00;98258.47;5024387;28;20552;-47
2022/10/03 06:52:02;;;;;;;21.55;11.23;;;11.50;99.90;;;11.00;100.00;98258.41;5022910;28;20715;-45
2022/10/03 06:55:04;;;;;;;19.00;12.77;;;11.50;99.90;;;10.96;100.00;98256.75;5044820;28;20036;-47
2022/10/03 06:58:23;;;;;;;23.92;15.13;;;11.50;99.90;;;10.93;100.00;98264.72;5041937;28;20906;-45
2022/10/03 07:01:49;;;;;;;20.60;13.55;;;11.40;99.90;;;10.99;100.00;98252.25;5028888;28;20048;-44
2022/10/03 07:04:45;;;;;;;24.48;14.50;;;11.50;99.90;;;11.01;100.00;98257.50;4987880;28;20198;-41
2022/10/03 07:07:44;;;;;;;22.50;13.77;;;11.50;99.90;;;11.05;100.00;98260.03;5039771;28;20379;-44
2022/10/03 07:10:24;;;;;;;19.73;13.35;;;11.50;99.90;;;11.04;100.00;98263.56;5038338;28;20482;-44
2022/10/03 07:13:09;;;;;;;20.27;14.07;;;11.50;99.90;;;11.03;100.00;98276.81;5044931;28;20460;-46
2022/10/03 07:15:56;;;;;;;19.73;13.50;;;11.50;99.90;;;11.02;100.00;98278.59;5039962;28;20059;-43
2022/10/03 07:18:54;;;;;;;18.95;13.38;;;11.50;99.90;;;10.99;100.00;98281.28;5038841;28;20294;-44
2022/10/03 07:22:04;;;;;;;22.65;15.32;;;11.50;99.90;;;10.97;100.00;98284.88;5022839;28;20028;-43
2022/10/03 07:25:11;;;;;;;26.90;14.00;;;11.50;99.90;;;10.94;100.00;98282.31;5026837;28;20656;-45
2022/10/03 07:28:22;;;;;;;22.02;14.90;;;11.40;99.90;;;10.89;100.00;98283.31;5031625;28;20036;-43
2022/10/03 07:31:12;;;;;;;23.48;14.82;;;11.40;99.90;;;10.85;100.00;98286.91;5045132;28;20040;-45
2022/10/03 07:34:08;;;;;;;19.73;13.82;;;11.40;99.90;;;10.88;100.00;98292.13;5026291;28;22408;-48
2022/10/03 07:40:45;;;;;;;25.77;16.02;;;11.40;99.90;;;10.89;100.00;98296.50;5031549;28;20063;-40
2022/10/03 07:43:53;;;;;;;23.00;14.63;;;11.50;99.90;;;10.95;100.00;98294.63;5042257;28;20090;-42
2022/10/03 07:47:00;;;;;;;18.63;12.77;;;11.50;99.90;;;11.10;100.00;98290.72;5027251;28;20028;-44
2022/10/03 07:49:47;;;;;;;25.95;15.60;;;11.50;99.90;;;11.15;100.00;98292.34;5030288;22;23237;-41
2022/10/03 07:52:41;;;;;;;21.55;14.32;;;11.70;99.90;;;11.26;100.00;98294.72;5060861;28;20042;-41
2022/10/03 07:55:44;;;;;;;24.48;13.43;;;11.70;99.90;;;11.40;100.00;98287.31;5059499;28;20040;-41
2022/10/03 07:58:46;;;;;;;24.50;14.13;;;11.90;99.90;;;11.47;100.00;98298.59;5059261;28;20210;-41
2022/10/03 08:01:53;;;;;;;22.05;12.45;;;12.00;99.90;;;11.56;100.00;98298.34;5055073;28;20036;-41
2022/10/03 08:04:43;;;;;;;21.08;12.57;;;12.10;99.90;;;11.59;100.00;98295.63;5048149;28;20181;-42
2022/10/03 08:07:38;;;;;;;22.65;14.48;;;12.10;99.90;;;11.62;100.00;98299.94;5057475;28;20028;-42
2022/10/03 08:10:51;;;;;;;17.27;11.43;;;12.10;99.90;;;11.60;100.00;98299.97;5047178;28;20043;-41
2022/10/03 08:13:38;;;;;;;19.67;12.43;;;12.20;99.90;;;11.48;100.00;98305.59;5045487;28;20512;-42
2022/10/03 08:16:49;;;;;;;17.20;11.55;;;12.10;99.90;;;11.44;100.00;98318.00;5064516;28;20058;-42
2022/10/03 08:20:04;;;;;;;20.83;12.10;;;12.00;99.90;;;11.40;100.00;98323.41;5045533;28;20027;-42
2022/10/03 08:23:29;;;;;;;21.45;12.52;;;12.00;99.90;;;11.36;100.00;98327.91;5019232;28;20084;-41
2022/10/03 08:26:27;;;;;;;17.45;12.05;;;11.90;99.90;;;11.30;100.00;98325.41;5062298;28;20032;-42
2022/10/03 08:29:26;;;;;;;20.08;12.30;;;11.90;99.90;;;11.14;100.00;98326.69;5045269;28;20036;-42
2022/10/03 08:32:45;;;;;;;18.33;11.85;;;11.70;99.90;;;11.10;100.00;98323.25;5049626;28;20032;-41
2022/10/03 08:35:25;;;;;;;16.45;10.52;;;11.70;99.90;;;11.16;100.00;98325.78;5043946;28;20040;-41
2022/10/03 08:38:11;;;;;;;21.75;11.32;;;11.70;99.90;;;11.23;100.00;98322.06;5031012;28;20033;-40
2022/10/03 08:41:17;;;;;;;19.38;11.82;;;11.70;99.90;;;11.29;100.00;98326.34;5033878;28;20512;-42
2022/10/03 08:44:14;;;;;;;20.67;11.32;;;11.80;99.90;;;11.30;100.00;98328.06;5044031;28;20123;-41
2022/10/03 08:47:38;;;;;;;19.48;11.45;;;11.80;99.90;;;11.30;100.00;98329.84;5057559;28;20511;-41
2022/10/03 08:50:18;;;;;;;18.83;10.18;;;11.90;99.90;;;11.26;100.00;98331.69;5031999;28;20043;-41
2022/10/03 08:53:14;;;;;;;15.45;10.00;;;11.90;99.90;;;11.31;100.00;98328.94;5058719;28;20037;-41
2022/10/03 08:56:06;;;;;;;20.67;11.10;;;11.90;99.90;;;11.38;100.00;98330.53;5061488;28;20036;-41
2022/10/03 08:59:27;;;;;;;19.38;11.15;;;11.90;99.90;;;11.41;100.00;98333.06;5048394;28;20042;-41
2022/10/03 09:02:33;;;;;;;20.58;10.40;;;12.00;99.90;;;11.53;100.00;98327.47;5045361;28;20056;-39
2022/10/03 09:05:26;;;;;;;15.15;9.02;;;12.10;99.90;;;11.65;100.00;98328.94;5058143;28;20040;-39
2022/10/03 09:08:12;;;;;;;;;;;12.20;99.90;;;11.82;100.00;98331.97;5060791;28;20024;-40
2022/10/03 09:10:53;;;;;;;13.00;7.30;;;12.40;99.90;;;11.98;100.00;98334.25;5058251;28;20005;-40
2022/10/03 09:13:59;;;;;;;18.15;9.70;;;12.50;99.90;;;12.02;100.00;98334.13;5059420;28;20032;-40
2022/10/03 09:17:07;;;;;;;12.77;8.40;;;12.60;99.90;;;12.12;100.00;98329.44;5063599;28;20090;-39
2022/10/03 09:20:10;;;;;;;11.48;7.55;;;12.70;99.90;;;12.29;100.00;98334.25;5065193;28;20081;-38
2022/10/03 09:23:07;;;;;;;;;;;12.80;99.90;;;12.40;100.00;98326.88;5035200;28;20071;-38
2022/10/03 09:26:07;;;;;;;15.20;7.05;;;12.90;99.90;;;12.63;100.00;98317.34;5057156;28;19916;-38
2022/10/03 09:29:23;;;;;;;16.27;7.80;;;13.10;99.90;;;12.87;100.00;98328.97;5062819;28;20040;-38
2022/10/03 09:32:06;;;;;;;13.18;7.28;;;13.40;99.90;;;13.10;100.00;98330.00;5061541;28;20036;-38
2022/10/03 09:35:29;;;;;;;15.38;8.43;;;13.60;99.90;;;13.31;100.00;98317.88;5044426;28;20044;-38
2022/10/03 09:38:12;;;;;;;12.43;6.80;;;13.80;99.90;;;13.53;100.00;98321.56;5053704;28;20039;-38
2022/10/03 09:41:15;;;;;;;11.10;6.07;;;14.10;99.90;;;13.78;100.00;98318.03;5054473;28;21489;-38
2022/10/03 09:44:08;;;;;;;10.80;6.38;;;14.30;99.90;;;13.88;100.00;98318.59;5057379;28;20678;-38
2022/10/03 09:47:21;;;;;;;14.07;6.85;;;14.40;99.90;;;14.01;100.00;98313.69;5040198;28;20126;-39
2022/10/03 09:50:21;;;;;;;9.20;5.50;;;14.50;99.90;;;14.18;100.00;98321.06;5058775;28;20032;-38
2022/10/03 09:53:49;;;;;;;9.35;4.78;;;14.70;99.90;;;14.23;100.00;98319.06;5050331;28;20687;-38
2022/10/03 09:56:52;;;;;;;10.52;5.03;;;14.70;99.90;;;14.19;100.00;98317.47;5008256;28;20044;-38
2022/10/03 10:00:15;;;;;;;7.30;4.10;;;14.70;99.90;;;13.82;100.00;98313.47;5063157;28;20043;-38
2022/10/03 10:03:18;;;;;;;12.23;4.47;;;14.40;99.90;;;13.31;100.00;98305.50;5054915;28;20040;-38
2022/10/03 10:06:04;;;;;;;7.22;4.38;;;13.90;99.90;;;13.09;100.00;98307.97;5028468;28;20058;-39
2022/10/03 10:08:39;;;;;;;6.80;3.83;;;13.60;99.90;;;12.93;100.00;98307.59;5058149;28;20038;-39
2022/10/03 10:11:21;;;;;;;11.70;5.05;;;13.40;99.90;;;12.83;100.00;98319.41;5052040;28;20040;-39
2022/10/03 10:14:14;;;;;;;10.77;4.45;;;13.40;99.90;;;12.83;100.00;98318.53;5032599;28;20047;-39
2022/10/03 10:17:07;;;;;;;7.70;4.10;;;13.40;99.90;;;12.94;100.00;98319.06;5059890;28;20304;-39
2022/10/03 10:19:54;;;;;;;8.88;3.60;;;13.50;99.90;;;13.17;100.00;98318.31;5061558;28;22807;-39
2022/10/03 10:22:54;;;;;;;8.55;3.58;;;13.70;99.90;;;13.41;100.00;98327.25;5043279;28;20098;-40
2022/10/03 10:26:09;;;;;;;11.27;3.80;;;13.90;99.90;;;13.53;100.00;98328.63;5056087;28;20032;-38
2022/10/03 10:28:54;;;;;;;6.35;3.33;;;14.10;99.90;;;13.54;100.00;98331.22;5060520;28;20031;-39
2022/10/03 10:32:03;;;;;;;7.03;3.58;;;14.00;99.90;;;13.64;100.00;98334.44;5057191;28;20456;-40
2022/10/03 10:35:15;;;;;;;5.68;3.53;;;14.00;99.90;;;13.77;100.00;98331.38;5062740;28;20076;-38
2022/10/03 10:38:01;;;;;;;10.25;3.75;;;14.20;99.90;;;13.99;100.00;98336.78;5046835;28;20550;-38
2022/10/03 10:40:56;;;;;;;9.23;4.15;;;14.40;99.90;;;14.29;100.00;98343.59;5037656;28;20505;-38
2022/10/03 10:43:43;;;;;;;8.52;4.18;;;14.70;99.90;;;14.46;100.00;98342.09;5038969;28;20043;-38
2022/10/03 10:46:56;;;;;;;11.25;4.30;;;15.00;99.90;;;14.61;100.00;98322.13;5057980;28;20060;-38
2022/10/03 10:50:11;;;;;;;6.82;3.75;;;15.20;99.90;;;14.96;100.00;98341.13;5059083;28;20039;-38
2022/10/03 10:53:48;;;;;;;7.50;3.70;;;15.40;99.90;;;15.07;100.00;98328.25;5061528;28;20504;-39
2022/10/03 10:56:54;;;;;;;6.90;3.60;;;15.60;99.90;;;15.17;99.48;98334.94;5044959;28;20043;-39
2022/10/03 10:59:42;;;;;;;10.00;3.67;;;15.70;99.90;;;15.29;93.03;98325.63;5054843;28;20032;-39
2022/10/03 11:02:45;;;;;;;8.55;3.45;;;15.90;99.90;;;15.36;94.56;98331.53;5036410;28;20024;-39
2022/10/03 11:05:33;;;;;;;12.57;4.00;;;15.90;99.90;;;15.40;100.00;98326.03;5051480;28;20194;-39
2022/10/03 11:08:42;;;;;;;6.57;2.92;;;15.90;99.90;;;15.17;100.00;98323.47;5053921;28;20031;-39
2022/10/03 11:11:28;;;;;;;7.47;3.65;;;15.70;99.90;;;14.84;100.00;98303.50;5051880;28;20040;-39
2022/10/03 11:14:51;;;;;;;6.45;3.22;;;15.50;99.90;;;14.67;100.00;98319.22;5059447;28;20608;-38
2022/10/03 11:18:04;;;;;;;8.18;3.83;;;15.20;99.90;;;14.32;100.00;98313.47;4978246;28;20042;-38
2022/10/03 11:20:50;;;;;;;11.82;3.80;;;14.80;99.90;;;14.12;100.00;98319.47;4977498;28;20502;-39
2022/10/03 11:30:09;;;;;;;10.18;4.18;;;14.40;99.90;;;13.80;100.00;98315.31;5014201;28;20090;-75
2022/10/03 11:33:11;;;;;;;8.05;3.45;;;14.40;99.90;;;13.96;100.00;98327.13;5021423;28;20490;-76
2022/10/03 14:54:36;;;;;;;4.97;2.20;;;15.50;99.90;;;15.06;76.14;98199.88;5068203;27;20409;-37
2022/10/03 14:57:18;;;;;;;6.32;2.30;;;15.60;99.90;;;15.18;79.39;98203.81;5053839;28;20031;-37
2022/10/03 14:59:56;;;;;;;7.38;2.65;;;15.70;99.90;;;15.17;76.89;98190.59;5057168;28;20650;-37
2022/10/03 15:02:44;;;;;;;4.50;2.20;;;15.70;99.90;;;15.23;76.85;98191.19;5059350;28;20087;-37
2022/10/03 15:05:28;;;;;;;5.85;1.90;;;15.70;99.90;;;15.27;77.06;98200.78;5058179;28;20041;-37
2022/10/03 15:07:55;;;;;;;4.80;1.88;;;15.80;99.90;;;15.23;72.30;98190.31;5066633;22;20052;-39
2022/10/03 15:10:26;;;;;;;3.95;1.85;;;15.80;99.90;;;15.25;76.18;98194.66;5040335;28;20127;-39
2022/10/03 15:13:08;;;;;;;4.20;2.10;;;15.80;99.90;;;15.14;77.94;98169.47;5043886;28;20028;-39
2022/10/03 15:15:38;;;;;;;5.68;1.92;;;15.80;99.90;;;15.27;78.30;98191.91;5040154;28;20032;-39
2022/10/03 15:18:06;;;;;;;4.40;1.83;;;15.80;99.90;;;15.27;78.45;98184.81;5031519;28;20176;-39
2022/10/03 15:20:36;;;;;;;3.05;1.65;;;15.80;99.90;;;15.31;78.60;98185.56;5046131;28;20039;-39
2022/10/03 15:23:06;;;;;;;2.88;1.80;;;15.80;99.90;;;15.29;78.97;98198.06;5047643;28;20036;-39
2022/10/03 15:25:38;;;;;;;5.00;1.98;;;15.80;99.90;;;15.28;79.28;98193.66;5038915;28;20440;-38
2022/10/03 15:28:21;;;;;;;2.92;1.63;;;15.80;99.90;;;15.25;78.30;98193.78;5043237;28;20150;-38
2022/10/03 15:30:50;;;;;;;3.78;1.92;;;15.80;99.90;;;15.21;75.17;98193.03;5050088;28;20580;-42
2022/10/03 15:33:27;;;;;;;4.38;1.90;;;15.70;99.90;;;15.25;78.85;98188.47;5039801;28;20141;-40
2022/10/03 15:35:58;;;;;;;4.03;2.10;;;15.70;99.90;;;15.21;81.48;98182.41;5044948;28;20556;-39
2022/10/03 15:38:37;;;;;;;6.88;2.05;;;15.70;99.90;;;15.19;79.73;98178.13;5035054;28;21836;-39
2022/10/03 15:41:16;;;;;;;4.80;1.90;;;15.80;99.90;;;15.10;73.86;98179.38;5045932;28;20040;-39
2022/10/03 15:44:03;;;;;;;4.80;2.00;;;15.70;99.90;;;14.97;72.97;98184.34;5044914;28;20033;-39